Mount Washington Rgnl Information

FAA: HIE - ICAO: KHIE

Mount Washington Rgnl (Airport) Location

State New Hampshire
County Coos
City Whitefield
Mount Washington Rgnl (Airport) is 3 miles east of Whitefield, NH.
Latitude 44-22-03.2000N
Longitude 071-32-44.9000W
Elevation 1,072ft

Mount Washington Rgnl METARs

METAR KHIE 170452Z AUTO 00000KT 10SM -RA FEW050 BKN080 OVC100 14/13 A2947 RMK AO2 RAB50 SLP975 P0001 T01440128 402670139 $
Altimeter 29.47"
Temperature 14.4°C (57.9°F)
Wind 0° at 0KT
Clouds few at 5,000ft broken at 8,000ft overcast at 10,000ft
Visibility 10.0mi
Time observed: 2022-05-17T04:52:00Z

Mount Washington Rgnl (Airport) Details

Status Operational
Activation August 1946
Ownership Public
Usage Public
Chart MONTREAL
ATC on-site No
Beacon schedule sunset-sunrise
Beacon color clear green

Mount Washington Rgnl (Airport) Contacts

Owner TOWN OF WHITEFIELD
Owner address 5 LITTLETON RD, WHITEFIELD, NH 03598
Owner phone 603-837-2551
Manager ANDREW POMEROY
Manager address PDA, 36 AIRLINE AVE, PORTSMOUTH, NH 03801
Manager phone 603-433-6536

Mount Washington Rgnl Radio Frequencies

Mount Washington Rgnl (Airport) Radio Frequencies

UNICOM 122.8
Common traffic advisory frequency (CTAF) 122.8